createdAt,value
2018-12-04T00:27:24.141Z,8.62
2018-12-04T00:27:24.717Z,8.63
2018-12-04T00:27:25.316Z,8.54
2018-12-04T00:27:25.916Z,8.55
2018-12-04T00:27:26.516Z,8.54
2018-12-04T00:27:27.119Z,8.62
2018-12-04T00:27:27.716Z,8.54
2018-12-04T00:27:28.317Z,8.57
2018-12-04T00:28:21.794Z,8.60
2018-12-04T00:28:22.382Z,8.58
2018-12-04T00:28:22.969Z,8.58
2018-12-04T00:28:23.569Z,8.62
2018-12-04T00:28:24.170Z,8.58
2018-12-04T00:28:24.770Z,8.63
2018-12-04T00:28:25.370Z,8.58
2018-12-04T00:28:25.968Z,8.62
2018-12-04T00:29:20.471Z,8.60
2018-12-04T00:29:21.050Z,8.62
2018-12-04T00:29:21.646Z,8.63
2018-12-04T00:29:22.246Z,8.57
2018-12-04T00:29:22.849Z,8.54
2018-12-04T00:29:23.447Z,8.58
2018-12-04T00:29:24.044Z,8.54
2018-12-04T00:29:24.644Z,8.55
2018-12-04T00:30:18.123Z,8.60
2018-12-04T00:30:18.701Z,8.60
2018-12-04T00:30:19.299Z,8.60
2018-12-04T00:30:19.899Z,8.60
2018-12-04T00:30:20.499Z,8.60
2018-12-04T00:30:21.099Z,8.57
2018-12-04T00:30:21.699Z,8.57
2018-12-04T00:30:22.298Z,8.53
2018-12-04T00:31:15.774Z,8.54
2018-12-04T00:31:16.352Z,8.58
2018-12-04T00:31:16.951Z,8.60
2018-12-04T00:31:17.550Z,8.50
2018-12-04T00:31:18.152Z,8.60
2018-12-04T00:31:18.751Z,8.62
2018-12-04T00:31:19.350Z,8.55
2018-12-04T00:31:19.951Z,8.57
2018-12-04T00:32:13.428Z,8.50
2018-12-04T00:32:14.003Z,8.63
2018-12-04T00:32:14.602Z,8.60
2018-12-04T00:32:15.205Z,8.53
2018-12-04T00:32:15.803Z,8.58
2018-12-04T00:32:16.402Z,8.54
2018-12-04T00:32:17.008Z,8.60
2018-12-04T00:32:17.604Z,8.62
2018-12-04T00:33:12.104Z,8.60
2018-12-04T00:33:12.678Z,8.51
2018-12-04T00:33:13.278Z,8.58
2018-12-04T00:33:13.877Z,8.57
2018-12-04T00:33:14.478Z,8.54
2018-12-04T00:33:15.077Z,8.57
2018-12-04T00:33:15.678Z,8.53
2018-12-04T00:33:16.276Z,8.62
2018-12-04T00:34:10.779Z,8.58
2018-12-04T00:34:11.355Z,8.60
2018-12-04T00:34:11.955Z,8.54
2018-12-04T00:34:12.553Z,8.54
2018-12-04T00:34:13.154Z,8.57
2018-12-04T00:34:13.753Z,8.60
2018-12-04T00:34:14.354Z,8.54
2018-12-04T00:34:14.954Z,8.65
2018-12-04T00:35:08.431Z,8.55
2018-12-04T00:35:09.007Z,8.57
2018-12-04T00:35:09.607Z,8.63
2018-12-04T00:35:10.206Z,8.65
2018-12-04T00:35:10.807Z,8.63
2018-12-04T00:35:11.411Z,8.62
2018-12-04T00:35:12.008Z,8.53
2018-12-04T00:35:12.607Z,8.55
2018-12-04T00:36:06.085Z,8.58
2018-12-04T00:36:06.660Z,8.58
2018-12-04T00:36:07.260Z,8.63
2018-12-04T00:36:07.858Z,8.62
2018-12-04T00:36:08.461Z,8.58
2018-12-04T00:36:09.058Z,8.54
2018-12-04T00:36:09.659Z,8.57
2018-12-04T00:36:10.259Z,8.57
2018-12-04T00:37:03.737Z,8.60
2018-12-04T00:37:04.311Z,8.66
2018-12-04T00:37:04.911Z,8.54
2018-12-04T00:37:05.510Z,8.54
2018-12-04T00:37:06.121Z,8.58
2018-12-04T00:37:06.711Z,8.55
2018-12-04T00:37:07.309Z,8.55
2018-12-04T00:37:07.910Z,8.60
2018-12-04T00:38:02.420Z,8.53
2018-12-04T00:38:02.985Z,8.63
2018-12-04T00:38:03.584Z,8.53
2018-12-04T00:38:04.185Z,8.62
2018-12-04T00:38:04.783Z,8.65
2018-12-04T00:38:05.383Z,8.58
2018-12-04T00:38:05.984Z,8.65
2018-12-04T00:38:06.584Z,8.53
2018-12-04T00:39:00.063Z,8.62
2018-12-04T00:39:01.740Z,8.57
2018-12-04T00:39:01.846Z,8.65
2018-12-04T00:39:01.936Z,8.58
2018-12-04T00:39:02.442Z,8.62
2018-12-04T00:39:03.039Z,8.58
2018-12-04T00:39:03.639Z,8.62
2018-12-04T00:39:04.241Z,8.63
2018-12-04T00:39:58.740Z,8.62
2018-12-04T00:39:59.312Z,8.55
2018-12-04T00:39:59.914Z,8.62
2018-12-04T00:40:00.516Z,8.58
2018-12-04T00:40:01.114Z,8.54
2018-12-04T00:40:01.752Z,8.54
2018-12-04T00:40:02.314Z,8.66
2018-12-04T00:40:02.912Z,8.57
2018-12-04T00:40:57.421Z,8.58
2018-12-04T00:40:57.990Z,8.51
2018-12-04T00:40:58.589Z,8.53
2018-12-04T00:40:59.189Z,8.58
2018-12-04T00:40:59.790Z,8.65
2018-12-04T00:41:00.388Z,8.63
2018-12-04T00:41:00.989Z,8.58
2018-12-04T00:41:01.590Z,8.60
2018-12-04T00:41:56.091Z,8.51
2018-12-04T00:41:56.664Z,8.54
2018-12-04T00:41:57.265Z,8.51
2018-12-04T00:41:57.865Z,8.51
2018-12-04T00:41:58.466Z,8.54
2018-12-04T00:41:59.064Z,8.48
2018-12-04T00:41:59.664Z,8.53
2018-12-04T00:42:00.264Z,8.47
2018-12-04T00:42:53.742Z,8.50
2018-12-04T00:42:54.319Z,8.53
2018-12-04T00:42:54.918Z,8.50
2018-12-04T00:42:55.518Z,8.50
2018-12-04T00:42:56.121Z,8.54
2018-12-04T00:42:56.716Z,8.53
2018-12-04T00:42:57.317Z,8.50
2018-12-04T00:42:57.916Z,8.53
2018-12-04T00:43:52.420Z,8.48
2018-12-04T00:43:52.992Z,8.47
2018-12-04T00:43:53.592Z,8.53
2018-12-04T00:43:54.193Z,8.54
2018-12-04T00:43:54.793Z,8.50
2018-12-04T00:43:55.392Z,8.54
2018-12-04T00:43:55.991Z,8.48
2018-12-04T00:43:56.592Z,8.48
2018-12-04T00:44:50.069Z,8.44
2018-12-04T00:44:50.646Z,8.50
2018-12-04T00:44:51.250Z,8.51
2018-12-04T00:44:51.847Z,8.47
2018-12-04T00:44:52.445Z,8.48
2018-12-04T00:44:53.044Z,8.47
2018-12-04T00:44:53.645Z,8.50
2018-12-04T00:44:54.245Z,8.48
2018-12-04T00:45:47.722Z,8.45
2018-12-04T00:45:48.297Z,8.48
2018-12-04T00:45:48.896Z,8.53
2018-12-04T00:45:49.496Z,8.55
2018-12-04T00:45:50.096Z,8.50
2018-12-04T00:45:50.696Z,8.54
2018-12-04T00:45:51.296Z,8.50
2018-12-04T00:45:51.895Z,8.50
2018-12-04T00:46:45.374Z,8.47
2018-12-04T00:46:45.950Z,8.54
2018-12-04T00:46:46.548Z,8.48
2018-12-04T00:46:47.149Z,8.50
2018-12-04T00:46:47.749Z,8.51
2018-12-04T00:46:48.349Z,8.54
2018-12-04T00:46:48.948Z,8.54
2018-12-04T00:46:49.549Z,8.50
2018-12-04T00:47:44.053Z,8.48
2018-12-04T00:47:44.625Z,8.47
2018-12-04T00:47:45.224Z,8.48
2018-12-04T00:47:45.823Z,8.50
2018-12-04T00:47:46.424Z,8.50
2018-12-04T00:47:47.030Z,8.51
2018-12-04T00:47:47.623Z,8.51
2018-12-04T00:47:48.223Z,8.48
2018-12-04T00:48:41.701Z,8.42
2018-12-04T00:48:42.276Z,8.50
2018-12-04T00:48:42.877Z,8.42
2018-12-04T00:48:43.479Z,8.51
2018-12-04T00:48:44.075Z,8.50
2018-12-04T00:48:44.674Z,8.53
2018-12-04T00:48:45.275Z,8.51
2018-12-04T00:48:45.874Z,8.53
2018-12-04T00:49:39.362Z,8.51
2018-12-04T00:49:39.930Z,8.47
2018-12-04T00:49:40.528Z,8.45
2018-12-04T00:49:41.128Z,8.54
2018-12-04T00:49:41.727Z,8.51
2018-12-04T00:49:42.327Z,8.45
2018-12-04T00:49:42.927Z,8.48
2018-12-04T00:49:43.528Z,8.47
2018-12-04T00:50:37.004Z,8.44
2018-12-04T00:50:37.579Z,8.51
2018-12-04T00:50:38.178Z,8.51
2018-12-04T00:50:38.779Z,8.45
2018-12-04T00:50:39.378Z,8.44
2018-12-04T00:50:39.979Z,8.44
2018-12-04T00:50:40.577Z,8.51
2018-12-04T00:50:41.180Z,8.45
2018-12-04T00:51:35.681Z,8.44
2018-12-04T00:51:36.255Z,8.47
2018-12-04T00:51:36.855Z,8.47
2018-12-04T00:51:37.457Z,8.42
2018-12-04T00:51:38.054Z,8.51
2018-12-04T00:51:38.653Z,8.53
2018-12-04T00:51:39.254Z,8.51
2018-12-04T00:51:39.853Z,8.44
2018-12-04T00:52:33.339Z,8.42
2018-12-04T00:52:33.906Z,8.51
2018-12-04T00:52:34.507Z,8.47
2018-12-04T00:52:35.145Z,8.47
2018-12-04T00:52:35.707Z,8.48
2018-12-04T00:52:36.307Z,8.47
2018-12-04T00:52:36.905Z,8.48
2018-12-04T00:52:37.505Z,8.45
2018-12-04T00:53:32.009Z,8.53
2018-12-04T00:53:32.583Z,8.48
2018-12-04T00:53:33.182Z,8.48
2018-12-04T00:53:33.783Z,8.47
2018-12-04T00:53:34.381Z,8.48
2018-12-04T00:53:34.981Z,8.54
2018-12-04T00:53:35.582Z,8.50
2018-12-04T00:53:36.182Z,8.54
2018-12-04T00:54:29.659Z,8.45
2018-12-04T00:54:30.233Z,8.53
2018-12-04T00:54:30.836Z,8.53
2018-12-04T00:54:31.434Z,8.48
2018-12-04T00:54:32.034Z,8.48
2018-12-04T00:54:32.635Z,8.50
2018-12-04T00:54:33.234Z,8.51
2018-12-04T00:54:33.834Z,8.47
2018-12-04T00:55:28.337Z,8.51
2018-12-04T00:55:28.916Z,8.53
2018-12-04T00:55:29.531Z,8.48
2018-12-04T00:55:30.112Z,8.51
2018-12-04T00:55:30.710Z,8.53
2018-12-04T00:55:31.309Z,8.51
2018-12-04T00:55:31.908Z,8.51
2018-12-04T00:55:32.508Z,8.45
2018-12-04T00:56:25.987Z,8.45
2018-12-04T00:56:26.562Z,8.48
2018-12-04T00:56:27.162Z,8.47
2018-12-04T00:56:27.763Z,8.50
2018-12-04T00:56:28.362Z,8.47
2018-12-04T00:56:28.961Z,8.50
2018-12-04T00:56:29.563Z,8.50
2018-12-04T00:56:30.164Z,8.48
2018-12-04T00:57:24.663Z,8.54
2018-12-04T00:57:25.238Z,8.48
2018-12-04T00:57:25.837Z,8.53
2018-12-04T00:57:26.436Z,8.54
2018-12-04T00:57:27.036Z,8.48
2018-12-04T00:57:27.635Z,8.48
2018-12-04T00:57:28.239Z,8.50
2018-12-04T00:57:28.835Z,8.50
2018-12-04T00:58:22.314Z,8.48
2018-12-04T00:58:22.889Z,8.48
2018-12-04T00:58:23.539Z,8.50
2018-12-04T00:58:24.089Z,8.48
2018-12-04T00:58:24.690Z,8.54
2018-12-04T00:58:25.289Z,8.54
2018-12-04T00:58:25.888Z,8.47
2018-12-04T00:58:26.487Z,8.47
2018-12-04T00:59:19.966Z,8.47
2018-12-04T00:59:20.540Z,8.51
2018-12-04T00:59:21.140Z,8.42
2018-12-04T00:59:21.740Z,8.48
2018-12-04T00:59:22.340Z,8.48
2018-12-04T00:59:22.941Z,8.53
2018-12-04T00:59:23.542Z,8.50
2018-12-04T00:59:24.140Z,8.47
2018-12-04T01:00:18.643Z,8.40
2018-12-04T01:00:19.216Z,8.47
2018-12-04T01:00:19.817Z,8.47
2018-12-04T01:00:20.416Z,8.44
2018-12-04T01:00:21.018Z,8.45
2018-12-04T01:00:21.616Z,8.40
2018-12-04T01:00:22.217Z,8.40
2018-12-04T01:00:22.815Z,8.50
2018-12-04T01:01:16.294Z,8.42
2018-12-04T01:01:16.868Z,8.47
2018-12-04T01:01:17.468Z,8.45
2018-12-04T01:01:18.070Z,8.45
2018-12-04T01:01:18.668Z,8.44
2018-12-04T01:01:19.270Z,8.40
2018-12-04T01:01:19.867Z,8.42
2018-12-04T01:01:20.510Z,8.45
2018-12-04T01:02:13.944Z,8.36
2018-12-04T01:02:14.520Z,8.48
2018-12-04T01:02:15.120Z,8.44
2018-12-04T01:02:15.721Z,8.36
2018-12-04T01:02:16.321Z,8.36
2018-12-04T01:02:16.920Z,8.45
2018-12-04T01:02:17.519Z,8.44
2018-12-04T01:02:18.119Z,8.48
2018-12-04T01:03:11.599Z,8.36
2018-12-04T01:03:12.171Z,8.44
2018-12-04T01:03:12.775Z,8.44
2018-12-04T01:03:13.372Z,8.32
2018-12-04T01:03:13.971Z,8.40
2018-12-04T01:03:14.572Z,8.35
2018-12-04T01:03:15.171Z,8.44
2018-12-04T01:03:15.771Z,8.42
2018-12-04T01:04:09.248Z,8.36
2018-12-04T01:04:09.824Z,8.37
2018-12-04T01:04:10.424Z,8.37
2018-12-04T01:04:11.023Z,8.32
2018-12-04T01:04:11.624Z,8.32
2018-12-04T01:04:12.223Z,8.37
2018-12-04T01:04:12.824Z,8.33
2018-12-04T01:04:13.423Z,8.35
2018-12-04T01:05:06.900Z,8.28
2018-12-04T01:05:07.475Z,8.29
2018-12-04T01:05:08.075Z,8.28
2018-12-04T01:05:08.675Z,8.25
2018-12-04T01:05:09.279Z,8.26
2018-12-04T01:05:09.875Z,8.26
2018-12-04T01:05:10.494Z,8.28
2018-12-04T01:05:11.075Z,8.28
2018-12-04T01:06:04.550Z,8.21
2018-12-04T01:06:05.127Z,8.29
2018-12-04T01:06:05.728Z,8.28
2018-12-04T01:06:06.355Z,8.28
2018-12-04T01:06:06.930Z,8.26
2018-12-04T01:06:07.526Z,8.25
2018-12-04T01:06:08.126Z,8.22
2018-12-04T01:06:08.726Z,8.29
2018-12-04T01:07:03.231Z,8.17
2018-12-04T01:07:03.802Z,8.25
2018-12-04T01:07:04.402Z,8.26
2018-12-04T01:07:05.004Z,8.25
2018-12-04T01:07:05.606Z,8.22
2018-12-04T01:07:06.202Z,8.20
2018-12-04T01:07:06.802Z,8.22
2018-12-04T01:07:07.402Z,8.25
2018-12-04T01:08:00.878Z,8.21
2018-12-04T01:08:01.455Z,8.25
2018-12-04T01:08:02.054Z,8.21
2018-12-04T01:08:02.655Z,8.18
2018-12-04T01:08:03.255Z,8.21
2018-12-04T01:08:03.854Z,8.21
2018-12-04T01:08:04.454Z,8.22
2018-12-04T01:08:05.054Z,8.18
2018-12-04T01:08:58.532Z,8.14
2018-12-04T01:08:59.107Z,8.28
2018-12-04T01:08:59.706Z,8.20
2018-12-04T01:09:00.307Z,8.25
2018-12-04T01:09:00.907Z,8.22
2018-12-04T01:09:01.507Z,8.17
2018-12-04T01:09:02.110Z,8.18
2018-12-04T01:09:02.706Z,8.22
2018-12-04T01:09:57.209Z,8.18
2018-12-04T01:09:57.781Z,8.26
2018-12-04T01:09:58.381Z,8.28
2018-12-04T01:09:58.980Z,8.25
2018-12-04T01:09:59.582Z,8.21
2018-12-04T01:10:00.181Z,8.26
2018-12-04T01:10:00.780Z,8.28
2018-12-04T01:10:01.381Z,8.25
2018-12-04T01:10:55.884Z,8.20
2018-12-04T01:10:56.457Z,8.28
2018-12-04T01:10:57.057Z,8.28
2018-12-04T01:10:57.656Z,8.25
2018-12-04T01:10:58.256Z,8.28
2018-12-04T01:10:58.857Z,8.25
2018-12-04T01:10:59.456Z,8.21
2018-12-04T01:11:00.057Z,8.28
2018-12-04T01:11:53.534Z,8.17
2018-12-04T01:11:54.110Z,8.22
2018-12-04T01:11:54.711Z,8.25
2018-12-04T01:11:55.309Z,8.18
2018-12-04T01:11:55.909Z,8.18
2018-12-04T01:11:56.509Z,8.22
2018-12-04T01:11:57.110Z,8.26
2018-12-04T01:11:57.709Z,8.25
2018-12-04T01:12:51.186Z,8.22
2018-12-04T01:12:51.760Z,8.22
2018-12-04T01:12:52.362Z,8.15
2018-12-04T01:12:52.960Z,8.22
2018-12-04T01:12:53.561Z,8.21
2018-12-04T01:12:54.161Z,8.22
2018-12-04T01:12:54.761Z,8.22
2018-12-04T01:12:55.404Z,8.26
2018-12-04T01:13:48.840Z,8.18
2018-12-04T01:13:49.414Z,8.20
2018-12-04T01:13:50.013Z,8.20
2018-12-04T01:13:50.614Z,8.25
2018-12-04T01:13:51.213Z,8.21
2018-12-04T01:13:51.813Z,8.18
2018-12-04T01:13:52.413Z,8.22
2018-12-04T01:13:53.012Z,8.17
2018-12-04T01:14:47.515Z,8.11
2018-12-04T01:14:48.087Z,8.12
2018-12-04T01:14:48.690Z,8.12
2018-12-04T01:14:49.287Z,8.10
2018-12-04T01:14:49.887Z,8.07
2018-12-04T01:14:50.487Z,8.21
2018-12-04T01:14:51.090Z,8.17
2018-12-04T01:14:51.687Z,8.08
2018-12-04T01:15:46.189Z,8.14
2018-12-04T01:15:46.764Z,8.18
2018-12-04T01:15:47.363Z,8.12
2018-12-04T01:15:47.962Z,8.07
2018-12-04T01:15:48.563Z,8.11
2018-12-04T01:15:49.164Z,8.10
2018-12-04T01:15:49.762Z,8.12
2018-12-04T01:15:50.363Z,8.02
2018-12-04T01:16:44.865Z,8.00
2018-12-04T01:16:45.439Z,8.14
2018-12-04T01:16:46.038Z,8.15
2018-12-04T01:16:46.639Z,8.11
2018-12-04T01:16:47.239Z,8.11
2018-12-04T01:16:47.838Z,8.04
2018-12-04T01:16:48.440Z,8.10
2018-12-04T01:16:49.039Z,8.11
2018-12-04T01:17:42.517Z,7.99
2018-12-04T01:17:43.093Z,8.10
2018-12-04T01:17:43.692Z,8.14
2018-12-04T01:17:44.291Z,8.11
2018-12-04T01:17:44.892Z,8.14
2018-12-04T01:17:45.496Z,8.12
2018-12-04T01:17:46.092Z,8.07
2018-12-04T01:17:46.691Z,8.07
2018-12-04T01:18:40.168Z,7.99
2018-12-04T01:18:40.743Z,8.12
2018-12-04T01:18:41.343Z,8.08
2018-12-04T01:18:41.944Z,8.03
2018-12-04T01:18:42.544Z,8.08
2018-12-04T01:18:43.143Z,8.04
2018-12-04T01:18:43.743Z,8.11
2018-12-04T01:18:44.343Z,8.11
2018-12-04T01:19:37.821Z,7.99
2018-12-04T01:19:38.394Z,8.03
2018-12-04T01:19:38.995Z,8.08
2018-12-04T01:19:39.594Z,8.11
2018-12-04T01:19:40.195Z,8.02
2018-12-04T01:19:40.794Z,8.08
2018-12-04T01:19:41.394Z,8.11
2018-12-04T01:19:41.994Z,8.12
2018-12-04T01:20:35.471Z,8.10
2018-12-04T01:20:36.047Z,8.11
2018-12-04T01:20:36.647Z,7.99
2018-12-04T01:20:37.248Z,7.99
2018-12-04T01:20:37.847Z,8.10
2018-12-04T01:20:38.447Z,8.14
2018-12-04T01:20:39.048Z,8.02
2018-12-04T01:20:39.646Z,8.00
2018-12-04T01:21:34.149Z,7.96
2018-12-04T01:21:34.722Z,8.00
2018-12-04T01:21:35.322Z,7.99
2018-12-04T01:21:35.921Z,8.03
2018-12-04T01:21:36.525Z,8.14
2018-12-04T01:21:37.123Z,8.00
2018-12-04T01:21:37.721Z,7.99
2018-12-04T01:21:38.324Z,8.20
2018-12-04T01:22:31.803Z,7.97
2018-12-04T01:22:32.374Z,7.99
2018-12-04T01:22:32.973Z,7.99
2018-12-04T01:22:33.579Z,8.02
2018-12-04T01:22:34.178Z,8.04
2018-12-04T01:22:34.774Z,7.96
2018-12-04T01:22:35.373Z,8.11
2018-12-04T01:22:35.973Z,8.10
2018-12-04T01:23:30.476Z,8.11
2018-12-04T01:23:31.052Z,8.02
2018-12-04T01:23:31.650Z,8.04
2018-12-04T01:23:32.249Z,7.97
2018-12-04T01:23:32.850Z,7.97
2018-12-04T01:23:33.449Z,7.99
2018-12-04T01:23:34.048Z,8.07
2018-12-04T01:23:34.651Z,8.00
2018-12-04T01:24:28.127Z,7.97
2018-12-04T01:24:28.702Z,8.14
2018-12-04T01:24:29.301Z,7.99
2018-12-04T01:24:29.901Z,8.11
2018-12-04T01:24:30.502Z,8.02
2018-12-04T01:24:31.101Z,8.04
2018-12-04T01:24:31.700Z,8.12
2018-12-04T01:24:32.304Z,7.97
2018-12-04T01:25:26.810Z,8.14
2018-12-04T01:25:27.377Z,8.11
2018-12-04T01:25:27.977Z,8.00
2018-12-04T01:25:28.577Z,8.07
2018-12-04T01:25:29.176Z,8.00
2018-12-04T01:25:29.776Z,7.96
2018-12-04T01:25:30.378Z,8.04
2018-12-04T01:25:31.014Z,8.02
2018-12-04T01:26:25.479Z,7.99
2018-12-04T01:26:26.053Z,8.12
2018-12-04T01:26:26.658Z,8.04
2018-12-04T01:26:27.251Z,8.00
2018-12-04T01:26:27.851Z,7.97
2018-12-04T01:26:28.454Z,7.97
2018-12-04T01:26:29.051Z,8.02
2018-12-04T01:26:29.651Z,8.08
2018-12-04T01:27:24.154Z,7.99
2018-12-04T01:27:24.727Z,8.04
2018-12-04T01:27:25.329Z,8.10
2018-12-04T01:27:25.928Z,8.00
2018-12-04T01:27:26.528Z,8.11
2018-12-04T01:27:27.128Z,7.99
2018-12-04T01:27:27.728Z,8.08
2018-12-04T01:27:28.328Z,7.96
2018-12-04T01:28:22.831Z,8.07
2018-12-04T01:28:23.409Z,7.97
2018-12-04T01:28:24.005Z,8.04
2018-12-04T01:28:24.605Z,8.14
2018-12-04T01:28:25.202Z,8.00
2018-12-04T01:28:25.804Z,8.04
2018-12-04T01:28:26.402Z,8.08
2018-12-04T01:28:27.003Z,8.10
2018-12-04T01:29:21.506Z,8.07
2018-12-04T01:29:22.080Z,8.11
2018-12-04T01:29:22.683Z,8.07
2018-12-04T01:29:23.280Z,8.08
2018-12-04T01:29:23.879Z,8.12
2018-12-04T01:29:24.480Z,8.11
2018-12-04T01:29:25.079Z,8.07
2018-12-04T01:29:25.682Z,8.07
2018-12-04T01:30:20.181Z,8.12
2018-12-04T01:30:20.756Z,8.02
2018-12-04T01:30:21.355Z,8.11
2018-12-04T01:30:21.954Z,8.10
2018-12-04T01:30:22.554Z,8.08
2018-12-04T01:30:23.155Z,8.11
2018-12-04T01:30:23.754Z,8.03
2018-12-04T01:30:24.354Z,8.08
2018-12-04T01:31:18.856Z,8.08
2018-12-04T01:31:19.430Z,7.96
2018-12-04T01:31:20.031Z,7.99
2018-12-04T01:31:20.633Z,8.02
2018-12-04T01:31:21.230Z,8.04
2018-12-04T01:31:21.829Z,8.07
2018-12-04T01:31:22.432Z,7.97
2018-12-04T01:31:23.029Z,8.02
2018-12-04T01:32:16.509Z,7.97
2018-12-04T01:32:17.083Z,8.04
2018-12-04T01:32:17.683Z,7.96
2018-12-04T01:32:18.283Z,7.94
2018-12-04T01:32:18.882Z,7.93
2018-12-04T01:32:19.486Z,7.99
2018-12-04T01:32:20.083Z,8.04
2018-12-04T01:32:20.682Z,8.07
2018-12-04T01:33:26.858Z,7.92
2018-12-04T01:33:27.431Z,7.99
2018-12-04T01:33:28.032Z,7.97
2018-12-04T01:33:28.631Z,8.07
2018-12-04T01:33:29.242Z,7.97
2018-12-04T01:33:29.830Z,8.07
2018-12-04T01:33:30.431Z,8.03
2018-12-04T01:33:31.030Z,7.97
2018-12-04T01:34:24.509Z,7.97
2018-12-04T01:34:25.085Z,7.99
2018-12-04T01:34:25.683Z,7.99
2018-12-04T01:34:26.284Z,7.99
2018-12-04T01:34:26.884Z,7.97
2018-12-04T01:34:27.484Z,7.94
2018-12-04T01:34:28.083Z,7.99
2018-12-04T01:34:28.684Z,8.07
2018-12-04T01:35:22.161Z,8.07
2018-12-04T01:35:22.736Z,7.96
2018-12-04T01:35:23.339Z,7.93
2018-12-04T01:35:23.936Z,7.96
2018-12-04T01:35:24.536Z,8.03
2018-12-04T01:35:25.135Z,8.00
2018-12-04T01:35:25.735Z,8.02
2018-12-04T01:35:26.389Z,7.94
2018-12-04T01:36:19.813Z,7.87
2018-12-04T01:36:20.389Z,7.93
2018-12-04T01:36:20.989Z,8.00
2018-12-04T01:36:21.588Z,8.00
2018-12-04T01:36:22.188Z,8.00
2018-12-04T01:36:22.787Z,7.96
2018-12-04T01:36:23.387Z,7.93
2018-12-04T01:36:23.988Z,7.97
2018-12-04T01:37:18.495Z,7.90
2018-12-04T01:37:19.063Z,8.03
2018-12-04T01:37:19.661Z,7.89
2018-12-04T01:37:20.262Z,8.03
2018-12-04T01:37:20.861Z,8.00
2018-12-04T01:37:21.463Z,7.96
2018-12-04T01:37:22.062Z,8.00
2018-12-04T01:37:22.662Z,8.04
2018-12-04T01:38:16.141Z,7.92
2018-12-04T01:38:16.715Z,7.94
2018-12-04T01:38:17.317Z,7.96
2018-12-04T01:38:17.915Z,7.89
2018-12-04T01:38:18.516Z,7.94
2018-12-04T01:38:19.117Z,7.96
2018-12-04T01:38:19.719Z,7.90
2018-12-04T01:38:20.318Z,7.90
2018-12-04T01:39:13.792Z,7.90
2018-12-04T01:39:14.367Z,7.92
2018-12-04T01:39:14.967Z,7.93
2018-12-04T01:39:15.567Z,7.90
2018-12-04T01:39:16.166Z,7.90
2018-12-04T01:39:16.766Z,7.90
2018-12-04T01:39:17.367Z,7.93
2018-12-04T01:39:17.966Z,7.89
2018-12-04T01:40:12.468Z,7.96
2018-12-04T01:40:13.042Z,7.93
2018-12-04T01:40:13.644Z,7.85
2018-12-04T01:40:14.242Z,7.89
2018-12-04T01:40:14.842Z,7.90
2018-12-04T01:40:15.442Z,7.85
2018-12-04T01:40:16.042Z,7.93
2018-12-04T01:40:16.642Z,7.90
2018-12-04T01:41:10.119Z,7.92
2018-12-04T01:41:10.695Z,7.93
2018-12-04T01:41:11.294Z,7.87
2018-12-04T01:41:11.896Z,7.87
2018-12-04T01:41:12.501Z,7.85
2018-12-04T01:41:13.095Z,7.85
2018-12-04T01:41:13.694Z,7.84
2018-12-04T01:41:14.338Z,7.94
2018-12-04T01:42:08.797Z,7.84
2018-12-04T01:42:09.370Z,7.89
2018-12-04T01:42:09.969Z,7.90
2018-12-04T01:42:10.569Z,7.90
2018-12-04T01:42:11.170Z,7.87
2018-12-04T01:42:11.770Z,7.94
2018-12-04T01:42:12.369Z,7.84
2018-12-04T01:42:12.968Z,7.85
2018-12-04T01:43:06.447Z,7.81
2018-12-04T01:43:07.022Z,7.84
2018-12-04T01:43:07.623Z,7.87
2018-12-04T01:43:08.221Z,7.85
2018-12-04T01:43:08.823Z,7.92
2018-12-04T01:43:09.424Z,7.87
2018-12-04T01:43:10.021Z,7.81
2018-12-04T01:43:10.625Z,7.84
2018-12-04T01:44:05.128Z,7.89
2018-12-04T01:44:05.698Z,7.89
2018-12-04T01:44:06.299Z,7.89
2018-12-04T01:44:06.897Z,7.93
2018-12-04T01:44:07.496Z,7.90
2018-12-04T01:44:08.098Z,7.90
2018-12-04T01:44:08.702Z,7.89
2018-12-04T01:44:09.296Z,7.90
2018-12-04T01:45:03.799Z,7.94
2018-12-04T01:45:04.373Z,7.85
2018-12-04T01:45:04.972Z,7.85
2018-12-04T01:45:05.572Z,7.87
2018-12-04T01:45:06.173Z,7.97
2018-12-04T01:45:06.771Z,7.90
2018-12-04T01:45:07.372Z,7.93
2018-12-04T01:45:07.971Z,7.89
2018-12-04T01:46:01.449Z,7.90
2018-12-04T01:46:02.025Z,7.92
2018-12-04T01:46:02.625Z,7.89
2018-12-04T01:46:03.225Z,7.87
2018-12-04T01:46:03.824Z,7.90
2018-12-04T01:46:04.426Z,7.87
2018-12-04T01:46:05.024Z,7.93
2018-12-04T01:46:05.623Z,7.85
2018-12-04T01:47:00.127Z,7.81
2018-12-04T01:47:00.699Z,7.85
2018-12-04T01:47:01.299Z,7.90
2018-12-04T01:47:01.900Z,7.94
2018-12-04T01:47:02.499Z,7.89
2018-12-04T01:47:03.099Z,7.85
2018-12-04T01:47:03.699Z,7.85
2018-12-04T01:47:04.299Z,7.84
2018-12-04T01:47:57.779Z,7.85
2018-12-04T01:47:58.356Z,7.81
2018-12-04T01:47:58.951Z,7.82
2018-12-04T01:47:59.551Z,7.82
2018-12-04T01:48:00.151Z,7.87
2018-12-04T01:48:00.751Z,7.87
2018-12-04T01:48:01.350Z,7.81
2018-12-04T01:48:01.950Z,7.85
2018-12-04T01:48:56.455Z,7.79
2018-12-04T01:48:57.037Z,7.89
2018-12-04T01:48:57.627Z,7.81
2018-12-04T01:48:58.230Z,7.89
2018-12-04T01:48:58.826Z,7.92
2018-12-04T01:48:59.427Z,7.82
2018-12-04T01:49:00.027Z,7.84
2018-12-04T01:49:00.626Z,7.81
2018-12-04T01:49:55.131Z,7.81
2018-12-04T01:49:55.703Z,7.82
2018-12-04T01:49:56.302Z,7.77
2018-12-04T01:49:56.903Z,7.82
2018-12-04T01:49:57.503Z,7.82
2018-12-04T01:49:58.102Z,7.79
2018-12-04T01:49:58.703Z,7.82
2018-12-04T01:49:59.301Z,7.81
2018-12-04T01:50:53.804Z,7.69
2018-12-04T01:50:54.379Z,7.72
2018-12-04T01:50:54.978Z,7.75
2018-12-04T01:50:55.579Z,7.75
2018-12-04T01:50:56.178Z,7.81
2018-12-04T01:50:56.778Z,7.78
2018-12-04T01:50:57.379Z,7.78
2018-12-04T01:50:57.979Z,7.75
2018-12-04T01:51:52.484Z,7.79
2018-12-04T01:51:53.054Z,7.75
2018-12-04T01:51:53.655Z,7.77
2018-12-04T01:51:54.254Z,7.78
2018-12-04T01:51:54.854Z,7.72
2018-12-04T01:51:55.457Z,7.75
2018-12-04T01:51:56.054Z,7.75
2018-12-04T01:51:56.653Z,7.75
2018-12-04T01:52:51.157Z,7.74
2018-12-04T01:52:51.730Z,7.69
2018-12-04T01:52:52.330Z,7.74
2018-12-04T01:52:52.931Z,7.72
2018-12-04T01:52:53.531Z,7.81
2018-12-04T01:52:54.130Z,7.72
2018-12-04T01:52:54.730Z,7.69
2018-12-04T01:52:55.330Z,7.74
2018-12-04T01:53:48.808Z,7.69
2018-12-04T01:53:49.382Z,7.74
2018-12-04T01:53:49.983Z,7.74
2018-12-04T01:53:50.583Z,7.71
2018-12-04T01:53:51.182Z,7.75
2018-12-04T01:53:51.783Z,7.74
2018-12-04T01:53:52.382Z,7.74
2018-12-04T01:53:52.982Z,7.71
2018-12-04T01:54:47.485Z,7.63
2018-12-04T01:54:48.060Z,7.72
2018-12-04T01:54:48.657Z,7.74
2018-12-04T01:54:49.258Z,7.77
2018-12-04T01:54:49.858Z,7.74
2018-12-04T01:54:50.457Z,7.75
2018-12-04T01:54:51.057Z,7.77
2018-12-04T01:54:51.657Z,7.72
2018-12-04T01:55:46.160Z,7.69
2018-12-04T01:55:46.733Z,7.72
2018-12-04T01:55:47.337Z,7.71
2018-12-04T01:55:47.932Z,7.71
2018-12-04T01:55:48.531Z,7.78
2018-12-04T01:55:49.133Z,7.60
2018-12-04T01:55:49.733Z,7.67
2018-12-04T01:55:50.333Z,7.79
2018-12-04T01:56:44.835Z,7.59
2018-12-04T01:56:45.409Z,7.71
2018-12-04T01:56:46.008Z,7.71
2018-12-04T01:56:46.609Z,7.72
2018-12-04T01:56:47.209Z,7.72
2018-12-04T01:56:47.808Z,7.71
2018-12-04T01:56:48.408Z,7.69
2018-12-04T01:56:49.007Z,7.81
2018-12-04T01:57:43.510Z,7.66
2018-12-04T01:57:44.089Z,7.66
2018-12-04T01:57:44.688Z,7.69
2018-12-04T01:57:45.287Z,7.67
2018-12-04T01:57:45.885Z,7.62
2018-12-04T01:57:46.484Z,7.63
2018-12-04T01:57:47.084Z,7.74
2018-12-04T01:57:47.684Z,7.69
2018-12-04T01:58:41.168Z,7.66
2018-12-04T01:58:41.741Z,7.71
2018-12-04T01:58:42.342Z,7.66
2018-12-04T01:58:42.940Z,7.69
2018-12-04T01:58:43.543Z,7.67
2018-12-04T01:58:44.140Z,7.77
2018-12-04T01:58:44.741Z,7.69
2018-12-04T01:58:45.340Z,7.72
2018-12-04T01:59:38.820Z,7.60
2018-12-04T01:59:39.394Z,7.71
2018-12-04T01:59:39.993Z,7.71
2018-12-04T01:59:40.594Z,7.67
2018-12-04T01:59:41.195Z,7.72
2018-12-04T01:59:41.794Z,7.62
2018-12-04T01:59:42.394Z,7.66
2018-12-04T01:59:42.993Z,7.66
2018-12-04T02:00:36.470Z,7.62
2018-12-04T02:00:37.045Z,7.60
2018-12-04T02:00:37.645Z,7.72
2018-12-04T02:00:38.244Z,7.71
2018-12-04T02:00:38.844Z,7.60
2018-12-04T02:00:39.445Z,7.63
2018-12-04T02:00:40.045Z,7.71
2018-12-04T02:00:40.644Z,7.62
2018-12-04T02:01:34.124Z,7.58
2018-12-04T02:01:34.697Z,7.62
2018-12-04T02:01:35.300Z,7.74
2018-12-04T02:01:35.898Z,7.63
2018-12-04T02:01:36.496Z,7.69
2018-12-04T02:01:37.100Z,7.69
2018-12-04T02:01:37.696Z,7.63
2018-12-04T02:01:38.296Z,7.67
2018-12-04T02:02:31.774Z,7.62
2018-12-04T02:02:32.350Z,7.74
2018-12-04T02:02:32.949Z,7.74
2018-12-04T02:02:33.548Z,7.79
2018-12-04T02:02:34.148Z,7.67
2018-12-04T02:02:34.749Z,7.75
2018-12-04T02:02:35.348Z,7.74
2018-12-04T02:02:35.950Z,7.79
2018-12-04T02:03:29.428Z,7.63
2018-12-04T02:03:30.000Z,7.77
2018-12-04T02:03:30.599Z,7.75
2018-12-04T02:03:31.200Z,7.74
2018-12-04T02:03:31.801Z,7.67
2018-12-04T02:03:32.400Z,7.74
2018-12-04T02:03:32.999Z,7.79